Time;durP1;ratioP1;P1;durP2;ratioP2;P2;SDS_P1;SDS_P2;PMS_P1;PMS_P2;Temp;Humidity;BMP_temperature;BMP_pressure;BME280_temperature;BME280_humidity;BME280_pressure;Samples;Min_cycle;Max_cycle;Signal;HPM_P1;HPM_P2
2021/12/09 00:01:23;;;;;;;23.70;17.80;;;1.10;99.90;;;-0.39;99.06;96591.25;5019973;28;20478;-68
2021/12/09 00:03:54;;;;;;;22.40;17.20;;;1.20;99.90;;;-0.25;99.08;96582.50;5022333;28;20964;-68
2021/12/09 00:06:25;;;;;;;24.67;17.73;;;1.20;99.90;;;-0.03;98.08;96596.69;5018539;28;20455;-68
2021/12/09 00:08:54;;;;;;;24.27;18.30;;;1.30;99.60;;;-0.03;97.34;96590.53;5026725;28;20858;-68
2021/12/09 00:11:22;;;;;;;24.80;18.00;;;1.40;97.10;;;0.03;98.07;96589.81;5024509;28;20498;-68
2021/12/09 00:13:50;;;;;;;24.87;18.23;;;1.40;98.40;;;-0.26;98.01;96588.81;5025352;28;20503;-68
2021/12/09 00:16:18;;;;;;;25.13;18.30;;;1.30;96.80;;;-0.40;98.68;96576.34;5030107;28;20459;-67
2021/12/09 00:18:46;;;;;;;22.83;17.47;;;1.20;96.70;;;-0.27;99.26;96581.00;5023909;28;20524;-68
2021/12/09 00:21:13;;;;;;;26.50;18.30;;;1.20;99.90;;;-0.28;99.05;96588.16;5027351;28;20879;-69
2021/12/09 00:23:40;;;;;;;25.80;18.40;;;1.20;99.60;;;-0.31;98.62;96575.22;5023322;28;20559;-68
2021/12/09 00:26:07;;;;;;;25.90;17.20;;;1.30;98.00;;;-0.41;98.50;96585.31;5030822;28;20462;-68
2021/12/09 00:28:35;;;;;;;27.33;16.83;;;1.20;97.20;;;-0.63;100.00;96585.16;5019508;28;20550;-68
2021/12/09 00:31:02;;;;;;;29.07;19.50;;;1.00;98.80;;;-0.69;100.00;96576.09;5030609;28;20538;-68
2021/12/09 00:33:30;;;;;;;26.60;17.07;;;1.00;99.90;;;-0.82;100.00;96583.84;5023165;28;20973;-68
2021/12/09 00:35:59;;;;;;;25.90;16.60;;;0.90;99.90;;;-0.75;100.00;96584.78;5027607;28;20467;-67
2021/12/09 00:38:36;;;;;;;28.70;18.53;;;0.90;99.90;;;-0.79;100.00;96581.66;5023565;28;20479;-68
2021/12/09 00:41:10;;;;;;;28.80;18.10;;;0.90;99.90;;;-0.82;100.00;96575.91;5024928;28;20462;-68
2021/12/09 00:43:38;;;;;;;28.77;18.23;;;0.80;99.90;;;-0.65;100.00;96577.41;5029916;28;21162;-67
2021/12/09 00:46:06;;;;;;;28.00;18.50;;;0.90;99.90;;;-0.71;100.00;96570.13;5024195;28;20454;-68
2021/12/09 00:48:35;;;;;;;27.77;19.00;;;0.90;99.90;;;-0.81;100.00;96566.94;5015966;28;20475;-67
2021/12/09 00:51:05;;;;;;;32.07;20.40;;;0.90;99.90;;;-0.78;100.00;96569.22;5023661;28;20539;-68
2021/12/09 00:53:33;;;;;;;30.00;20.43;;;0.80;99.90;;;-0.87;100.00;96563.16;5014534;28;20544;-68
2021/12/09 00:56:00;;;;;;;38.50;22.00;;;0.80;99.90;;;-0.98;100.00;96563.56;5025360;28;20459;-68
2021/12/09 00:58:27;;;;;;;34.90;21.23;;;0.70;99.90;;;-0.89;100.00;96565.97;5021568;28;20843;-68
2021/12/09 01:00:54;;;;;;;52.13;25.30;;;0.80;99.90;;;-0.98;100.00;96575.03;5040712;28;20809;-67
2021/12/09 01:03:21;;;;;;;40.47;23.37;;;0.70;99.90;;;-0.88;100.00;96574.78;5034287;28;20490;-68
2021/12/09 01:05:50;;;;;;;43.90;24.53;;;0.70;99.90;;;-0.94;100.00;96578.97;5026641;28;20487;-68
2021/12/09 01:08:18;;;;;;;36.70;22.80;;;0.80;99.90;;;-0.79;100.00;96580.84;5021897;28;20486;-68
2021/12/09 01:10:45;;;;;;;32.07;22.43;;;0.80;99.90;;;-0.84;100.00;96605.25;5023219;28;20557;-68
2021/12/09 01:13:12;;;;;;;32.40;22.53;;;0.80;99.90;;;-0.80;100.00;96605.72;5023955;28;20463;-68
2021/12/09 01:15:40;;;;;;;39.13;21.63;;;0.80;99.90;;;-0.75;100.00;96606.00;5020329;28;20465;-68
2021/12/09 01:18:07;;;;;;;31.13;22.10;;;0.90;99.90;;;-0.72;100.00;96613.59;5024021;28;20451;-68
2021/12/09 01:20:34;;;;;;;35.00;22.40;;;0.80;99.90;;;-0.53;100.00;96614.94;5022329;28;20462;-68
2021/12/09 01:23:03;;;;;;;37.00;21.80;;;0.90;99.90;;;-0.50;100.00;96616.41;5023876;28;20470;-69
2021/12/09 01:25:36;;;;;;;42.37;21.33;;;1.00;99.90;;;-0.72;100.00;96618.88;5021470;28;20512;-68
2021/12/09 01:28:04;;;;;;;33.40;22.40;;;0.90;99.90;;;-0.64;100.00;96618.84;5028095;28;20465;-68
2021/12/09 01:30:31;;;;;;;36.17;23.10;;;1.00;99.90;;;-0.41;100.00;96625.13;5019485;28;20900;-68
2021/12/09 01:32:58;;;;;;;34.10;22.37;;;1.10;99.90;;;-0.50;100.00;96630.47;5017178;28;20506;-68
2021/12/09 01:35:33;;;;;;;32.67;21.50;;;1.10;99.90;;;-0.55;100.00;96627.56;5021874;28;20549;-68
2021/12/09 01:38:10;;;;;;;33.60;22.10;;;1.00;99.90;;;-0.44;100.00;96634.25;5028538;28;20497;-69
2021/12/09 01:40:37;;;;;;;34.23;21.23;;;1.00;99.90;;;-0.40;99.96;96622.25;5024422;28;20463;-68
2021/12/09 01:43:05;;;;;;;33.70;21.77;;;1.20;99.90;;;-0.50;100.00;96642.94;5021330;28;20466;-69
2021/12/09 01:45:32;;;;;;;31.90;20.73;;;1.10;99.90;;;-0.59;99.92;96648.31;5025773;28;20932;-68
2021/12/09 01:47:59;;;;;;;33.37;21.13;;;1.10;99.90;;;-0.50;100.00;96649.06;5026111;28;20456;-68
2021/12/09 01:50:28;;;;;;;30.27;20.27;;;1.10;99.90;;;-0.45;100.00;96654.69;5018649;28;20495;-67
2021/12/09 01:52:55;;;;;;;30.80;20.23;;;1.10;99.90;;;-0.46;100.00;96660.16;5023394;28;20506;-68
2021/12/09 01:55:24;;;;;;;32.87;20.07;;;1.10;99.90;;;-0.49;100.00;96661.31;5023160;28;20471;-68
2021/12/09 01:57:53;;;;;;;33.00;20.97;;;1.10;99.90;;;-0.22;100.00;96666.25;5026808;28;20829;-68
2021/12/09 02:00:23;;;;;;;28.03;19.70;;;1.20;99.90;;;-0.41;99.96;96655.13;5021434;28;20472;-68
2021/12/09 02:02:51;;;;;;;31.60;19.73;;;1.20;99.90;;;-0.37;99.61;96643.16;5028432;28;20510;-68
2021/12/09 02:05:19;;;;;;;28.27;19.30;;;1.20;99.90;;;-0.62;99.84;96618.63;5020954;28;20462;-69
2021/12/09 02:07:46;;;;;;;28.40;18.63;;;1.10;99.90;;;-0.29;99.52;96637.75;5022529;28;20471;-69
2021/12/09 02:10:18;;;;;;;30.60;19.50;;;1.20;99.90;;;-0.13;98.77;96635.16;5024023;28;20469;-68
2021/12/09 02:12:49;;;;;;;30.70;20.43;;;1.30;99.80;;;-0.36;98.78;96634.19;5025158;28;20463;-68
2021/12/09 02:15:17;;;;;;;30.17;19.97;;;1.20;98.40;;;-0.09;98.86;96641.72;5022486;28;20510;-68
2021/12/09 02:17:44;;;;;;;31.27;20.70;;;1.30;99.80;;;-0.33;98.69;96644.44;5025178;28;20973;-68
2021/12/09 02:20:12;;;;;;;30.00;20.10;;;1.30;97.20;;;-0.46;99.51;96647.69;5019816;28;20553;-68
2021/12/09 02:22:45;;;;;;;31.77;19.93;;;1.20;97.30;;;-0.44;100.00;96650.19;5019548;28;20568;-68
2021/12/09 02:25:13;;;;;;;34.10;22.40;;;1.20;99.90;;;-0.34;99.33;96645.44;5016090;28;21010;-67
2021/12/09 02:27:40;;;;;;;33.30;21.10;;;1.20;99.70;;;-0.14;98.66;96647.59;5019694;28;20467;-68
2021/12/09 02:30:09;;;;;;;29.30;19.90;;;1.30;99.10;;;-0.27;98.76;96634.94;5021070;28;20462;-68
2021/12/09 02:32:36;;;;;;;32.30;21.20;;;1.20;99.20;;;-0.27;97.62;96632.28;5031410;28;21080;-68
2021/12/09 02:35:03;;;;;;;30.67;20.50;;;1.20;96.90;;;-0.20;96.77;96614.63;5015375;28;20866;-68
2021/12/09 02:37:30;;;;;;;33.23;22.07;;;1.30;95.30;;;-0.32;97.07;96619.56;5016760;28;20499;-68
2021/12/09 02:39:59;;;;;;;31.90;20.20;;;1.30;94.40;;;-0.54;98.48;96620.41;5022587;28;21045;-67
2021/12/09 02:42:26;;;;;;;31.67;20.83;;;1.10;95.40;;;-0.43;98.72;96627.94;5018324;28;20452;-68
2021/12/09 02:44:55;;;;;;;31.97;22.50;;;1.10;97.80;;;-0.28;99.23;96627.97;5021455;28;20817;-67
2021/12/09 02:47:23;;;;;;;34.70;20.90;;;1.20;99.90;;;-0.42;99.14;96626.94;5026569;28;21011;-68
2021/12/09 02:49:50;;;;;;;30.80;20.10;;;1.20;98.20;;;-0.28;99.11;96635.94;5022113;28;20548;-68
2021/12/09 02:52:17;;;;;;;32.00;21.60;;;1.20;99.60;;;-0.40;98.73;96627.56;5023135;28;20454;-68
2021/12/09 02:54:44;;;;;;;31.23;20.60;;;1.20;98.50;;;-0.21;98.54;96636.06;5017007;28;20484;-68
2021/12/09 02:57:13;;;;;;;32.83;21.13;;;1.20;99.30;;;-0.26;98.35;96646.38;5018658;28;20549;-68
2021/12/09 02:59:40;;;;;;;31.43;21.33;;;1.30;97.20;;;-0.09;98.32;96653.16;5019514;28;20521;-68
2021/12/09 03:02:10;;;;;;;31.87;20.90;;;1.30;98.20;;;0.04;97.31;96654.38;5022126;28;20590;-68
2021/12/09 03:04:42;;;;;;;30.70;19.70;;;1.40;96.60;;;-0.12;96.54;96652.72;5018998;28;20467;-68
2021/12/09 03:07:14;;;;;;;29.00;19.73;;;1.40;94.60;;;-0.11;97.48;96652.53;5021675;28;20470;-68
2021/12/09 03:09:49;;;;;;;31.20;21.03;;;1.40;96.30;;;-0.20;97.15;96646.47;5021192;28;20459;-68
2021/12/09 03:12:21;;;;;;;31.07;21.00;;;1.30;95.20;;;-0.14;97.45;96644.94;5036883;28;20888;-68
2021/12/09 03:14:49;;;;;;;33.73;22.03;;;1.30;96.10;;;-0.21;97.18;96641.34;5017998;28;20598;-68
2021/12/09 03:17:16;;;;;;;31.23;21.47;;;1.30;95.20;;;-0.14;98.05;96631.66;5019936;28;21034;-68
2021/12/09 03:19:43;;;;;;;33.30;23.00;;;1.30;96.50;;;-0.07;97.87;96629.94;5015370;28;20466;-68
2021/12/09 03:22:10;;;;;;;32.80;22.00;;;1.40;96.80;;;-0.39;98.00;96634.53;5016499;28;21058;-68
2021/12/09 03:24:40;;;;;;;33.03;21.00;;;1.20;95.70;;;-0.52;99.21;96640.47;5022160;28;20782;-68
2021/12/09 03:27:08;;;;;;;36.20;23.47;;;1.10;96.80;;;-0.40;98.90;96643.50;5017015;28;20479;-68
2021/12/09 03:29:36;;;;;;;34.60;21.60;;;1.20;98.90;;;-0.38;98.75;96646.81;5014176;28;20474;-69
2021/12/09 03:32:09;;;;;;;36.00;23.83;;;1.20;98.60;;;-0.37;98.92;96661.75;5022470;28;20962;-68
2021/12/09 03:34:39;;;;;;;35.90;21.77;;;1.20;98.00;;;-0.36;99.10;96666.03;5016743;28;20514;-69
2021/12/09 03:37:10;;;;;;;35.80;22.97;;;1.30;97.90;;;-0.39;99.07;96661.06;5020322;28;20860;-68
2021/12/09 03:39:40;;;;;;;34.43;22.07;;;1.20;97.80;;;-0.02;98.23;96662.06;5026168;28;20496;-69
2021/12/09 03:42:11;;;;;;;35.40;21.77;;;1.30;99.40;;;0.02;96.75;96667.00;5013071;28;20459;-69
2021/12/09 03:44:40;;;;;;;36.23;21.57;;;1.40;96.50;;;-0.01;96.58;96647.78;5017604;28;20556;-71
2021/12/09 03:47:12;;;;;;;31.67;21.90;;;1.50;95.40;;;-0.14;97.26;96650.25;5019133;28;20469;-68
2021/12/09 03:49:41;;;;;;;31.43;19.80;;;1.40;94.90;;;-0.22;97.38;96643.19;5016011;28;20512;-69
2021/12/09 03:52:10;;;;;;;28.70;19.27;;;1.40;95.20;;;-0.08;97.44;96652.16;5017931;28;20822;-69
2021/12/09 03:54:38;;;;;;;30.47;19.50;;;1.40;95.70;;;-0.03;96.88;96635.69;5021995;28;20475;-70
2021/12/09 03:57:06;;;;;;;27.77;19.53;;;1.50;96.00;;;-0.01;97.22;96636.31;5020944;28;23079;-69
2021/12/09 03:59:34;;;;;;;29.57;20.17;;;1.50;95.20;;;-0.06;97.38;96631.59;5018564;28;20593;-70
2021/12/09 04:02:02;;;;;;;29.90;20.80;;;1.50;95.60;;;-0.27;98.14;96626.13;5019425;28;20550;-68
2021/12/09 04:04:29;;;;;;;32.00;20.70;;;1.30;95.70;;;-0.45;98.25;96635.25;5018172;28;20571;-68
2021/12/09 04:06:57;;;;;;;32.20;21.57;;;1.20;95.90;;;-0.62;99.63;96646.00;5023380;28;20497;-68
2021/12/09 04:09:25;;;;;;;33.40;22.40;;;1.10;97.20;;;-0.45;99.76;96635.25;5023020;28;20554;-68
2021/12/09 04:11:53;;;;;;;34.43;21.73;;;1.10;99.90;;;-0.55;99.54;96642.63;5019642;28;20455;-68
2021/12/09 04:14:21;;;;;;;33.23;22.00;;;1.10;99.20;;;-0.50;99.66;96640.28;5017563;28;20478;-68
2021/12/09 04:16:50;;;;;;;33.17;21.00;;;1.10;99.90;;;-0.38;98.98;96646.81;5015196;28;20460;-68
2021/12/09 04:19:18;;;;;;;29.57;20.20;;;1.20;99.90;;;-0.22;98.92;96656.44;5018803;28;20471;-68
2021/12/09 04:21:46;;;;;;;29.93;21.10;;;1.30;99.90;;;-0.09;98.80;96655.81;5018181;28;20455;-69
2021/12/09 04:24:15;;;;;;;25.93;18.57;;;1.30;99.40;;;0.04;97.77;96670.31;5023980;28;20451;-68
2021/12/09 04:26:45;;;;;;;30.50;19.83;;;1.40;97.80;;;0.08;97.22;96671.63;5015645;28;20552;-69
2021/12/09 04:29:14;;;;;;;27.40;19.80;;;1.50;96.30;;;-0.12;96.94;96681.94;5025029;28;20562;-68
2021/12/09 04:31:42;;;;;;;31.63;20.30;;;1.40;94.70;;;-0.06;96.94;96682.03;5016537;28;20463;-67
2021/12/09 04:34:11;;;;;;;29.03;19.30;;;1.40;95.40;;;-0.05;97.17;96686.34;5040747;28;20485;-69
2021/12/09 04:36:39;;;;;;;32.43;21.17;;;1.40;95.20;;;-0.24;97.09;96685.00;5017965;28;20669;-69
2021/12/09 04:39:08;;;;;;;29.63;19.80;;;1.40;94.50;;;-0.11;97.45;96694.19;5025058;28;20965;-68
2021/12/09 04:41:35;;;;;;;28.80;20.63;;;1.40;95.50;;;-0.22;97.03;96693.63;5014213;28;20465;-69
2021/12/09 04:44:03;;;;;;;29.37;20.60;;;1.40;95.00;;;-0.11;97.43;96700.31;5028294;28;20458;-69
2021/12/09 04:46:30;;;;;;;30.70;20.07;;;1.40;96.20;;;0.07;97.32;96702.66;5014415;28;20852;-69
2021/12/09 04:48:57;;;;;;;29.30;19.30;;;1.50;96.20;;;0.03;96.80;96697.88;5027689;28;20916;-69
2021/12/09 04:51:24;;;;;;;28.50;19.80;;;1.50;95.40;;;-0.05;97.07;96707.59;5020196;28;20479;-69
2021/12/09 04:53:53;;;;;;;35.83;19.50;;;1.50;95.20;;;0.12;96.95;96716.19;5032906;28;20665;-69
2021/12/09 04:56:20;;;;;;;28.43;20.70;;;1.60;95.20;;;0.17;96.08;96718.31;5018201;28;20561;-69
2021/12/09 04:58:47;;;;;;;29.03;19.97;;;1.60;95.10;;;0.11;96.14;96713.75;5044141;28;20454;-69
2021/12/09 05:01:14;;;;;;;30.50;21.47;;;1.60;94.50;;;-0.05;96.98;96709.41;5015924;28;20477;-69
2021/12/09 05:03:45;;;;;;;29.33;18.30;;;1.50;94.90;;;-0.02;97.98;96714.34;5038639;28;20541;-69
2021/12/09 05:06:12;;;;;;;32.13;22.10;;;1.40;97.20;;;0.17;97.80;96707.69;5022932;28;20528;-69
2021/12/09 05:08:44;;;;;;;30.80;19.80;;;1.50;97.30;;;0.26;96.79;96706.63;5028661;28;20462;-69
2021/12/09 05:11:27;;;;;;;29.30;19.50;;;1.60;96.10;;;0.14;96.83;96721.34;5022440;28;20471;-69
2021/12/09 05:13:54;;;;;;;29.10;19.00;;;1.60;95.70;;;0.07;97.14;96715.09;5022720;28;20471;-69
2021/12/09 05:16:22;;;;;;;27.20;18.70;;;1.60;95.50;;;0.13;97.15;96722.34;5017982;28;20612;-68
2021/12/09 05:18:50;;;;;;;29.97;18.37;;;1.60;96.10;;;0.05;97.18;96712.63;5023646;28;20458;-68
2021/12/09 05:21:17;;;;;;;24.30;17.00;;;1.50;95.60;;;0.08;96.59;96700.84;5020063;28;20447;-67
2021/12/09 05:23:45;;;;;;;25.13;17.90;;;1.60;95.40;;;-0.15;97.59;96705.19;5032329;28;20557;-68
2021/12/09 05:26:14;;;;;;;27.77;17.27;;;1.50;95.30;;;-0.32;98.49;96722.22;5019710;28;20458;-68
2021/12/09 05:28:42;;;;;;;27.70;19.23;;;1.40;95.70;;;-0.30;99.29;96726.38;5029281;28;20949;-68
2021/12/09 05:33:53;;;;;;;27.37;18.77;;;1.30;98.00;;;0.02;98.86;96741.38;5023584;28;20463;-70
2021/12/09 05:36:20;;;;;;;28.70;19.50;;;1.40;99.80;;;0.02;97.74;96746.69;5013480;28;20546;-69
2021/12/09 05:38:47;;;;;;;27.67;18.57;;;1.50;97.10;;;0.05;98.26;96749.81;5017583;28;20493;-69
2021/12/09 05:41:15;;;;;;;28.50;18.60;;;1.50;97.00;;;0.15;97.62;96749.56;5019851;28;20597;-71
2021/12/09 05:43:43;;;;;;;30.10;18.50;;;1.60;96.90;;;-0.04;97.37;96737.59;5020899;28;20462;-70
2021/12/09 05:46:10;;;;;;;46.73;24.90;;;1.60;95.40;;;0.28;97.98;96739.16;5021552;28;20830;-70
2021/12/09 05:48:39;;;;;;;54.77;30.00;;;1.70;97.00;;;0.46;97.09;96721.22;5028061;28;20515;-70
2021/12/09 05:51:06;;;;;;;31.27;20.00;;;1.80;96.60;;;0.31;97.43;96721.19;5022548;28;20551;-72
2021/12/09 05:53:33;;;;;;;26.77;18.00;;;1.80;96.10;;;0.12;97.44;96724.19;5043029;28;21056;-70
2021/12/09 05:56:00;;;;;;;23.93;17.70;;;1.70;94.90;;;0.20;97.67;96733.91;5018902;28;20578;-70
2021/12/09 05:58:28;;;;;;;27.03;17.50;;;1.70;95.70;;;0.14;97.29;96731.97;5020250;28;20539;-69
2021/12/09 06:00:55;;;;;;;23.87;15.50;;;1.70;95.70;;;0.05;97.35;96719.75;5028344;28;20455;-70
2021/12/09 06:03:23;;;;;;;26.73;17.20;;;1.60;95.20;;;0.20;97.83;96728.59;5024759;28;21074;-70
2021/12/09 06:05:52;;;;;;;24.00;16.20;;;1.70;96.40;;;0.14;98.22;96710.72;5029308;28;20470;-71
2021/12/09 06:08:19;;;;;;;27.37;17.43;;;1.70;96.80;;;0.90;100.00;96722.97;5023866;28;20451;-71
2021/12/09 06:10:46;;;;;;;25.07;17.30;;;2.10;99.90;;;0.97;98.98;96718.59;5026148;28;20457;-69
2021/12/09 06:13:13;;;;;;;22.73;16.53;;;2.30;99.90;;;1.18;97.28;96721.50;5039351;28;20886;-71
2021/12/09 06:15:41;;;;;;;23.77;15.73;;;2.50;98.10;;;1.18;95.86;96708.19;5024919;28;20890;-70
2021/12/09 06:18:08;;;;;;;22.80;16.40;;;2.70;94.80;;;0.76;93.81;96711.38;5023078;28;20545;-70
2021/12/09 06:20:36;;;;;;;21.83;15.30;;;2.40;90.30;;;0.38;94.76;96712.28;5018126;28;20494;-71
2021/12/09 06:23:03;;;;;;;22.10;15.77;;;2.10;90.40;;;0.31;95.41;96713.22;5023164;28;20455;-73
2021/12/09 06:25:31;;;;;;;22.23;16.30;;;1.90;91.80;;;0.14;95.60;96705.41;5018012;28;20455;-70
2021/12/09 06:27:58;;;;;;;20.80;15.20;;;1.80;92.50;;;0.18;95.87;96725.28;5018412;28;20452;-72
2021/12/09 06:30:26;;;;;;;20.80;15.40;;;1.80;93.00;;;0.16;96.00;96737.94;5024293;28;20463;-72
2021/12/09 06:32:54;;;;;;;26.03;16.97;;;1.70;93.30;;;0.26;96.74;96741.16;5042011;28;20494;-71
2021/12/09 06:35:22;;;;;;;27.73;17.33;;;1.70;94.20;;;0.36;96.78;96737.41;5015207;28;20519;-72
2021/12/09 06:37:50;;;;;;;26.43;18.00;;;1.80;94.70;;;0.56;96.37;96738.53;5021368;28;20533;-71
2021/12/09 06:40:20;;;;;;;30.00;19.33;;;2.00;94.40;;;0.51;96.00;96743.53;5028703;28;20489;-72
2021/12/09 06:42:49;;;;;;;28.03;19.57;;;2.10;94.10;;;0.55;95.59;96758.13;5018188;28;20462;-71
2021/12/09 06:45:18;;;;;;;27.40;17.13;;;2.00;93.60;;;0.45;95.42;96762.06;5024263;28;20514;-72
2021/12/09 06:47:46;;;;;;;30.10;18.43;;;2.00;92.90;;;0.39;95.95;96764.44;5015679;28;20455;-73
2021/12/09 06:50:18;;;;;;;26.17;16.13;;;1.90;93.50;;;0.44;96.93;96766.56;5018404;28;20452;-72
2021/12/09 06:52:47;;;;;;;27.20;17.50;;;1.90;95.40;;;0.45;97.57;96780.66;5021751;28;20562;-74
2021/12/09 06:55:17;;;;;;;27.57;18.03;;;1.90;96.30;;;0.34;96.53;96777.44;5026089;28;20601;-71
2021/12/09 06:57:45;;;;;;;25.10;18.30;;;2.00;94.80;;;0.42;96.13;96776.56;5019889;28;20516;-77
2021/12/09 07:00:16;;;;;;;31.93;17.67;;;2.00;94.20;;;0.34;96.93;96793.41;5032796;28;20474;-71
2021/12/09 07:02:44;;;;;;;23.53;17.53;;;2.00;93.80;;;0.18;96.88;96799.66;5027094;28;20499;-71
2021/12/09 07:05:12;;;;;;;23.90;16.63;;;1.90;93.40;;;0.29;97.53;96803.72;5017717;28;20455;-71
2021/12/09 07:07:40;;;;;;;26.30;20.57;;;1.80;94.50;;;0.44;97.00;96813.56;5015766;28;20459;-71
2021/12/09 07:10:11;;;;;;;20.77;14.87;;;2.00;94.80;;;0.25;96.59;96816.56;5027232;28;20890;-72
2021/12/09 07:12:38;;;;;;;22.37;16.10;;;1.90;93.80;;;0.42;97.07;96821.72;5037091;28;21412;-72
2021/12/09 07:15:09;;;;;;;25.80;15.77;;;1.90;95.10;;;0.43;97.05;96818.06;5027353;28;20467;-71
2021/12/09 07:17:36;;;;;;;23.87;16.27;;;2.00;94.60;;;0.73;95.89;96819.91;5016960;28;20455;-74
2021/12/09 07:20:07;;;;;;;25.87;16.30;;;2.10;94.40;;;0.54;95.93;96824.75;5013789;28;20455;-72
2021/12/09 07:22:34;;;;;;;23.50;16.17;;;2.10;93.40;;;0.26;96.96;96831.50;5014027;28;20456;-71
2021/12/09 07:25:03;;;;;;;27.13;17.47;;;2.00;93.80;;;0.34;97.05;96827.94;5017535;28;20456;-72
2021/12/09 07:27:30;;;;;;;25.13;16.67;;;2.00;94.40;;;0.55;97.41;96827.25;5038717;28;20462;-73
2021/12/09 07:29:57;;;;;;;22.43;16.73;;;2.00;96.20;;;0.77;95.90;96824.69;5026755;28;20456;-73
2021/12/09 07:32:24;;;;;;;30.90;22.30;;;2.20;94.30;;;0.84;95.38;96815.00;5002040;28;20560;-73
2021/12/09 07:34:53;;;;;;;26.50;17.23;;;2.30;93.50;;;0.94;95.24;96817.38;5023584;28;20582;-73
2021/12/09 07:37:20;;;;;;;27.70;17.10;;;2.30;93.30;;;0.66;94.83;96817.16;5036811;28;20501;-73
2021/12/09 07:39:47;;;;;;;24.50;16.47;;;2.30;91.90;;;0.62;95.74;96816.72;5025434;28;20483;-73
2021/12/09 07:42:17;;;;;;;22.40;15.80;;;2.20;92.50;;;0.75;95.21;96816.09;5017640;28;20457;-74
2021/12/09 07:44:44;;;;;;;27.70;16.40;;;2.20;93.60;;;0.76;95.00;96823.06;5021280;28;20950;-74
2021/12/09 07:47:11;;;;;;;25.93;16.53;;;2.30;92.80;;;0.90;94.95;96832.03;5020242;28;20491;-74
2021/12/09 07:49:40;;;;;;;24.23;16.27;;;2.30;93.00;;;0.93;94.25;96828.19;5026509;28;20458;-74
2021/12/09 07:52:08;;;;;;;23.83;15.47;;;2.40;92.40;;;1.12;93.29;96827.63;5021914;28;20482;-72
2021/12/09 07:54:35;;;;;;;21.63;15.10;;;2.50;91.80;;;1.12;93.43;96821.50;5022212;28;20553;-71
2021/12/09 07:57:02;;;;;;;28.27;17.10;;;2.50;91.50;;;1.33;93.28;96820.75;5014990;28;20490;-71
2021/12/09 07:59:31;;;;;;;23.57;15.00;;;2.70;91.50;;;1.20;92.40;96809.94;5023405;28;20894;-72
2021/12/09 08:01:58;;;;;;;24.40;14.77;;;2.70;90.20;;;0.89;93.03;96781.69;5017845;28;20539;-76
2021/12/09 08:04:25;;;;;;;24.80;15.10;;;2.60;90.20;;;0.95;93.43;96816.38;5031342;28;20455;-74
2021/12/09 08:06:52;;;;;;;24.50;16.67;;;2.50;90.60;;;1.09;93.45;96814.69;5020086;28;20542;-75
2021/12/09 08:09:19;;;;;;;34.10;16.47;;;2.60;91.10;;;0.75;94.20;96797.47;5022278;28;20860;-73
2021/12/09 08:11:47;;;;;;;22.57;14.30;;;2.40;91.20;;;0.91;94.89;96809.78;5016746;28;20547;-72
2021/12/09 08:14:16;;;;;;;25.37;17.40;;;2.40;91.90;;;0.98;94.14;96805.34;5018513;28;20455;-74
2021/12/09 08:16:44;;;;;;;28.20;16.43;;;2.50;92.00;;;1.09;93.78;96812.03;5013742;28;20494;-72
2021/12/09 08:19:14;;;;;;;28.10;16.53;;;2.60;91.60;;;0.88;94.14;96814.63;5016135;28;20467;-73
2021/12/09 08:21:42;;;;;;;24.37;16.03;;;2.50;91.30;;;0.55;94.41;96774.09;5023046;28;20582;-75
2021/12/09 08:24:11;;;;;;;30.83;17.83;;;2.40;91.60;;;0.96;94.38;96823.34;5019743;28;20450;-75
2021/12/09 08:26:39;;;;;;;27.33;16.33;;;2.50;92.10;;;0.91;93.91;96816.91;5013559;28;20506;-74
2021/12/09 08:29:06;;;;;;;26.13;17.30;;;2.50;91.50;;;0.80;94.59;96824.31;5016668;28;21034;-75
2021/12/09 08:31:34;;;;;;;24.70;17.37;;;2.40;91.80;;;1.15;94.05;96826.44;5028607;28;20978;-74
2021/12/09 08:34:03;;;;;;;28.97;18.60;;;2.50;92.10;;;1.12;93.34;96822.31;5025301;28;20462;-75
2021/12/09 08:36:30;;;;;;;29.23;18.03;;;2.60;91.10;;;0.77;94.34;96811.41;5024353;28;20494;-74
2021/12/09 08:38:57;;;;;;;30.60;17.90;;;2.40;91.20;;;0.94;94.08;96828.03;5022429;28;20466;-74
2021/12/09 08:41:25;;;;;;;31.03;18.60;;;2.50;91.50;;;0.99;94.30;96841.59;5024892;28;20462;-74
2021/12/09 08:43:53;;;;;;;33.97;18.97;;;2.40;91.90;;;0.84;94.53;96838.09;5044352;28;20531;-74
2021/12/09 08:46:20;;;;;;;35.37;19.07;;;2.40;92.00;;;0.92;94.52;96821.22;5029001;28;20549;-73
2021/12/09 08:48:47;;;;;;;32.97;20.63;;;2.50;92.20;;;0.98;94.32;96821.31;5028078;28;20459;-73
2021/12/09 08:51:16;;;;;;;34.47;19.33;;;2.50;91.70;;;0.90;94.22;96804.63;5024908;28;20463;-74
2021/12/09 08:53:44;;;;;;;30.07;19.50;;;2.60;91.90;;;1.13;94.74;96826.63;5028157;28;20542;-73
2021/12/09 08:56:11;;;;;;;37.72;25.50;;;2.60;92.20;;;1.28;93.42;96807.16;5022848;28;20464;-73
2021/12/09 08:58:38;;;;;;;35.73;22.53;;;2.80;91.70;;;1.44;93.01;96832.75;5023762;28;20224;-71
2021/12/09 09:01:11;;;;;;;30.57;20.30;;;2.90;90.80;;;1.58;91.74;96827.56;5020657;28;20521;-71
2021/12/09 09:03:38;;;;;;;31.43;19.90;;;3.00;90.10;;;1.45;92.25;96842.38;5041946;28;20471;-71
2021/12/09 09:06:05;;;;;;;31.77;19.63;;;3.00;89.60;;;1.38;92.63;96826.31;5022643;28;20964;-72
2021/12/09 09:08:34;;;;;;;28.10;17.50;;;3.00;90.10;;;1.40;92.51;96842.94;5021146;28;20462;-70
2021/12/09 09:11:01;;;;;;;32.37;20.73;;;2.90;90.10;;;1.46;92.48;96848.53;5030548;28;20524;-71
2021/12/09 09:13:28;;;;;;;34.93;20.90;;;2.90;90.50;;;1.42;92.77;96846.22;5023025;28;20556;-72
2021/12/09 09:15:55;;;;;;;35.63;21.57;;;3.00;90.10;;;1.61;92.44;96846.69;5022955;28;21106;-71
2021/12/09 09:18:22;;;;;;;33.67;19.33;;;3.10;90.20;;;1.82;91.49;96861.03;5026575;28;20463;-71
2021/12/09 09:20:50;;;;;;;27.10;18.33;;;3.20;90.10;;;1.79;91.06;96859.56;5011747;28;20469;-70
2021/12/09 09:23:21;;;;;;;32.87;21.03;;;3.20;88.50;;;1.85;90.90;96860.66;5018863;28;20820;-72
2021/12/09 09:25:50;;;;;;;39.20;20.20;;;3.30;89.00;;;1.81;90.85;96852.19;5031589;28;20451;-71
2021/12/09 09:28:18;;;;;;;32.40;20.90;;;3.30;87.80;;;1.69;91.33;96857.19;5020752;28;20465;-73
2021/12/09 09:30:53;;;;;;;30.10;20.50;;;3.30;87.50;;;1.78;90.91;96870.41;5023379;28;20498;-71
2021/12/09 09:33:22;;;;;;;36.27;20.00;;;3.30;87.30;;;1.87;90.82;96873.78;5014970;28;21891;-72
2021/12/09 09:35:49;;;;;;;29.83;18.83;;;3.30;88.50;;;1.88;91.27;96878.91;5022902;28;20556;-71
2021/12/09 09:38:19;;;;;;;32.73;20.80;;;3.30;88.70;;;1.91;90.85;96875.91;5017616;28;20493;-72
2021/12/09 09:40:51;;;;;;;29.00;18.40;;;3.40;87.90;;;1.93;90.61;96883.69;5018913;28;20465;-73
2021/12/09 09:43:29;;;;;;;30.40;20.17;;;3.50;86.80;;;1.92;90.59;96882.88;5026447;28;20535;-72
2021/12/09 09:46:00;;;;;;;29.37;19.17;;;3.40;87.30;;;1.88;90.72;96883.44;5019964;28;20493;-70
2021/12/09 09:48:29;;;;;;;30.60;19.57;;;3.40;87.20;;;1.77;90.99;96876.75;5020887;28;20485;-72
2021/12/09 09:50:57;;;;;;;27.90;18.93;;;3.40;87.40;;;1.77;91.16;96880.22;5019148;28;21166;-71
2021/12/09 09:53:24;;;;;;;27.50;18.30;;;3.30;88.10;;;1.80;90.97;96890.50;5021708;28;20464;-72
2021/12/09 09:55:53;;;;;;;29.40;18.07;;;3.30;87.60;;;1.87;90.86;96893.25;5026292;28;20553;-72
2021/12/09 09:58:23;;;;;;;33.70;19.70;;;3.30;87.50;;;1.80;91.66;96893.16;5038125;28;20524;-71
2021/12/09 10:00:50;;;;;;;29.17;18.97;;;3.30;88.60;;;1.84;90.93;96888.31;5021322;28;20503;-72
2021/12/09 10:03:18;;;;;;;34.80;20.63;;;3.40;87.90;;;1.75;90.89;96887.59;5024722;28;20491;-72
2021/12/09 10:05:49;;;;;;;30.83;18.37;;;3.30;87.60;;;1.81;90.98;96908.13;5023070;28;20447;-71
2021/12/09 10:08:18;;;;;;;30.97;19.43;;;3.40;87.00;;;1.62;91.53;96896.25;5025543;28;20447;-72
2021/12/09 10:10:47;;;;;;;38.97;22.07;;;3.30;88.00;;;1.81;91.35;96910.81;5029563;28;20474;-72
2021/12/09 10:13:18;;;;;;;29.33;20.10;;;3.30;88.40;;;1.87;91.14;96914.56;5020843;28;20485;-72
2021/12/09 10:15:49;;;;;;;36.00;20.90;;;3.40;87.90;;;1.63;91.34;96899.72;5022519;28;20913;-73
2021/12/09 10:18:36;;;;;;;30.97;20.47;;;3.30;88.20;;;1.95;90.68;96917.13;5019660;28;20478;-72
2021/12/09 10:21:06;;;;;;;34.20;22.50;;;3.40;88.00;;;2.05;90.56;96911.50;5031247;28;20486;-71
2021/12/09 10:23:38;;;;;;;28.63;19.67;;;3.50;87.90;;;1.86;90.44;96901.44;5021986;28;20498;-72